Time;durP1;ratioP1;P1;durP2;ratioP2;P2;SDS_P1;SDS_P2;PMS_P1;PMS_P2;Temp;Humidity;BMP_temperature;BMP_pressure;BME280_temperature;BME280_humidity;BME280_pressure;Samples;Min_cycle;Max_cycle;Signal;HPM_P1;HPM_P2
2023/09/15 00:00:25;;;;;;;2.37;2.00;;;21.40;89.20;;;;;;5001784;28;20609;-90
2023/09/15 00:02:55;;;;;;;2.40;2.00;;;21.40;89.20;;;;;;5002172;28;20201;-89
2023/09/15 00:05:21;;;;;;;2.50;1.60;;;21.40;89.20;;;;;;5010433;28;20177;-90
2023/09/15 00:07:47;;;;;;;2.80;1.90;;;21.40;89.20;;;;;;5012139;28;20188;-90
2023/09/15 00:10:14;;;;;;;2.00;1.80;;;21.40;89.20;;;;;;5005827;28;20651;-90
2023/09/15 00:12:44;;;;;;;2.30;2.10;;;21.40;89.20;;;;;;4997995;28;20205;-90
2023/09/15 00:15:11;;;;;;;2.40;2.17;;;21.30;89.00;;;;;;5024523;28;20169;-90
2023/09/15 00:17:39;;;;;;;2.30;2.10;;;21.30;89.20;;;;;;4996863;28;20455;-90
2023/09/15 00:20:20;;;;;;;2.00;1.80;;;21.30;89.10;;;;;;5007247;28;20242;-90
2023/09/15 00:22:50;;;;;;;2.10;1.77;;;21.30;89.70;;;;;;4997944;28;20533;-90
2023/09/15 00:25:20;;;;;;;2.07;1.83;;;21.30;89.00;;;;;;5008096;28;20463;-89
2023/09/15 00:27:51;;;;;;;1.87;1.70;;;21.30;89.10;;;;;;4997463;28;20272;-89
2023/09/15 00:30:18;;;;;;;2.17;1.97;;;21.30;89.10;;;;;;5007075;28;20173;-89
2023/09/15 00:32:48;;;;;;;1.93;1.83;;;21.30;89.10;;;;;;4996344;28;20271;-90
2023/09/15 00:35:23;;;;;;;2.27;2.07;;;21.20;88.90;;;;;;5004091;28;20575;-90
2023/09/15 00:37:50;;;;;;;2.47;2.00;;;21.20;89.10;;;;;;5021662;28;20177;-90
2023/09/15 00:40:18;;;;;;;2.10;1.90;;;21.20;89.00;;;;;;5022453;28;20176;-89
2023/09/15 00:42:45;;;;;;;2.37;1.93;;;21.20;89.10;;;;;;5018428;28;20193;-89
2023/09/15 00:45:15;;;;;;;3.27;2.00;;;21.20;89.00;;;;;;5028535;28;20216;-89
2023/09/15 00:47:46;;;;;;;2.30;2.10;;;21.20;89.00;;;;;;4999656;28;20449;-89
2023/09/15 00:50:14;;;;;;;2.10;1.80;;;21.20;89.10;;;;;;5008454;28;20494;-89
2023/09/15 00:52:43;;;;;;;2.10;1.73;;;21.20;89.00;;;;;;4978060;28;20233;-89
2023/09/15 00:55:10;;;;;;;2.10;1.80;;;21.20;88.90;;;;;;5016331;28;20481;-89
2023/09/15 00:57:37;;;;;;;1.93;1.73;;;21.20;89.00;;;;;;4997375;28;20663;-89
2023/09/15 01:00:05;;;;;;;2.03;1.83;;;21.20;88.90;;;;;;5000605;28;20173;-90
2023/09/15 01:02:32;;;;;;;2.57;1.83;;;21.20;89.00;;;;;;5030708;28;20189;-89
2023/09/15 01:04:57;;;;;;;2.03;1.83;;;21.10;88.80;;;;;;5000139;28;20589;-89
2023/09/15 01:07:24;;;;;;;2.13;1.90;;;21.10;88.80;;;;;;4997237;28;20179;-90
2023/09/15 01:09:50;;;;;;;3.60;2.07;;;21.10;88.80;;;;;;4995431;28;20181;-89
2023/09/15 01:12:16;;;;;;;2.10;1.90;;;21.10;88.90;;;;;;5001131;28;20197;-89
2023/09/15 01:14:41;;;;;;;2.13;1.80;;;21.10;88.90;;;;;;4994835;28;20189;-89
2023/09/15 01:17:16;;;;;;;2.20;1.80;;;21.10;88.90;;;;;;5004231;28;20182;-89
2023/09/15 01:20:50;;;;;;;3.70;1.83;;;21.10;88.90;;;;;;4998623;28;20250;-89
2023/09/15 01:23:50;;;;;;;2.30;1.50;;;21.00;88.60;;;;;;4975080;28;20217;-89
2023/09/15 01:26:56;;;;;;;1.90;1.70;;;21.00;88.70;;;;;;5034323;28;20168;-89
2023/09/15 01:29:38;;;;;;;2.17;1.73;;;21.00;88.60;;;;;;4992801;28;20191;-89
2023/09/15 01:32:16;;;;;;;2.10;1.90;;;21.00;88.80;;;;;;5019725;28;20495;-89
2023/09/15 01:34:52;;;;;;;2.10;1.57;;;21.00;88.70;;;;;;5016966;28;20184;-89
2023/09/15 01:37:20;;;;;;;2.30;1.87;;;21.00;88.70;;;;;;5019384;28;20551;-90
2023/09/15 01:39:45;;;;;;;2.10;1.70;;;21.00;88.60;;;;;;5016492;28;20177;-89
2023/09/15 01:42:11;;;;;;;2.50;1.80;;;20.90;88.70;;;;;;5011234;28;20183;-89
2023/09/15 01:44:37;;;;;;;2.03;1.83;;;20.90;88.70;;;;;;5015976;28;20175;-89
2023/09/15 01:47:08;;;;;;;2.07;1.90;;;20.90;88.60;;;;;;5002956;28;20569;-89
2023/09/15 01:49:34;;;;;;;2.30;1.77;;;20.90;88.70;;;;;;4979077;28;20240;-89
2023/09/15 01:52:01;;;;;;;1.97;1.70;;;20.90;88.60;;;;;;5018338;28;20385;-89
2023/09/15 01:54:27;;;;;;;1.87;1.60;;;20.90;88.60;;;;;;4998045;28;20181;-89
2023/09/15 01:56:56;;;;;;;1.80;1.70;;;20.90;88.60;;;;;;5022916;28;20165;-89
2023/09/15 01:59:21;;;;;;;1.77;1.67;;;20.90;88.50;;;;;;5036439;28;20176;-89
2023/09/15 02:01:50;;;;;;;2.00;1.80;;;20.90;88.60;;;;;;5003583;28;20177;-89
2023/09/15 02:04:15;;;;;;;1.93;1.67;;;20.90;88.60;;;;;;5005456;28;20184;-89
2023/09/15 02:06:50;;;;;;;1.93;1.73;;;20.90;88.60;;;;;;5003980;28;20173;-89
2023/09/15 02:09:18;;;;;;;2.47;1.80;;;20.90;88.50;;;;;;5011830;28;20176;-89
2023/09/15 02:11:43;;;;;;;1.97;1.87;;;20.80;88.50;;;;;;5013652;28;20193;-89
2023/09/15 02:14:18;;;;;;;2.00;1.60;;;20.80;88.40;;;;;;5007658;28;20171;-90
2023/09/15 02:16:46;;;;;;;1.70;1.60;;;20.80;88.40;;;;;;5014917;28;20169;-89
2023/09/15 02:19:12;;;;;;;1.97;1.77;;;20.80;88.40;;;;;;5009948;28;20178;-89
2023/09/15 02:21:38;;;;;;;1.70;1.57;;;20.80;88.40;;;;;;5017190;28;20193;-89
2023/09/15 02:24:04;;;;;;;2.07;1.70;;;20.80;88.40;;;;;;5028122;28;20173;-89
2023/09/15 02:26:30;;;;;;;1.80;1.70;;;20.80;88.40;;;;;;5001046;28;20182;-89
2023/09/15 02:28:56;;;;;;;1.87;1.60;;;20.70;88.40;;;;;;5012136;28;20180;-89
2023/09/15 02:31:22;;;;;;;1.73;1.63;;;20.70;88.40;;;;;;4999036;28;20214;-89
2023/09/15 02:33:47;;;;;;;2.00;1.80;;;20.70;88.30;;;;;;5012143;28;20231;-89
2023/09/15 02:36:13;;;;;;;1.63;1.53;;;20.70;88.30;;;;;;4998492;28;20197;-89
2023/09/15 02:38:39;;;;;;;2.63;1.80;;;20.70;88.30;;;;;;5026460;28;20184;-89
2023/09/15 02:41:04;;;;;;;2.43;1.80;;;20.70;88.20;;;;;;5040155;28;20264;-89
2023/09/15 02:43:30;;;;;;;2.00;1.80;;;20.70;88.40;;;;;;5043012;28;20193;-89
2023/09/15 02:46:06;;;;;;;1.83;1.70;;;20.70;88.40;;;;;;5013912;28;20520;-89
2023/09/15 02:48:32;;;;;;;2.23;1.60;;;20.70;88.40;;;;;;5013467;28;20173;-89
2023/09/15 02:51:00;;;;;;;1.70;1.60;;;20.70;88.30;;;;;;5001548;28;20462;-89
2023/09/15 02:53:26;;;;;;;1.67;1.53;;;20.70;88.30;;;;;;5003138;28;20162;-89
2023/09/15 02:55:57;;;;;;;1.90;1.80;;;20.70;88.20;;;;;;5022836;28;20176;-89
2023/09/15 02:58:23;;;;;;;1.77;1.60;;;20.60;88.10;;;;;;5002415;28;20245;-89
2023/09/15 03:00:49;;;;;;;1.87;1.70;;;20.60;88.10;;;;;;5009774;28;20181;-89
2023/09/15 03:03:14;;;;;;;2.97;1.57;;;20.60;88.20;;;;;;5015425;28;20166;-89
2023/09/15 03:05:40;;;;;;;1.73;1.60;;;20.60;88.10;;;;;;5009097;28;20181;-89
2023/09/15 03:08:06;;;;;;;1.70;1.60;;;20.60;88.20;;;;;;4999486;28;20197;-89
2023/09/15 03:10:34;;;;;;;1.90;1.60;;;20.60;88.10;;;;;;5005309;28;20200;-88
2023/09/15 03:13:02;;;;;;;1.50;1.40;;;20.60;88.20;;;;;;5017076;28;20222;-88
2023/09/15 03:15:30;;;;;;;1.90;1.80;;;20.50;88.10;;;;;;5004556;28;20551;-88
2023/09/15 03:17:56;;;;;;;1.97;1.77;;;20.50;87.90;;;;;;5015953;28;20205;-88
2023/09/15 03:20:21;;;;;;;1.50;1.40;;;20.50;87.90;;;;;;5038319;28;20208;-88
2023/09/15 03:22:52;;;;;;;2.03;1.50;;;20.50;88.00;;;;;;5018450;28;20185;-88
2023/09/15 03:25:22;;;;;;;2.67;1.60;;;20.50;88.00;;;;;;5023923;28;20259;-88
2023/09/15 03:27:49;;;;;;;1.80;1.70;;;20.50;88.00;;;;;;5017925;28;20180;-88
2023/09/15 03:30:15;;;;;;;1.87;1.77;;;20.50;88.00;;;;;;5041230;28;20184;-88
2023/09/15 03:32:41;;;;;;;1.83;1.67;;;20.50;88.00;;;;;;5014859;28;20299;-88
2023/09/15 03:35:07;;;;;;;2.90;1.73;;;20.50;88.00;;;;;;5008068;28;20173;-88
2023/09/15 03:37:43;;;;;;;2.03;1.83;;;20.50;88.00;;;;;;5010101;28;20235;-88
2023/09/15 03:40:18;;;;;;;1.83;1.60;;;20.40;87.90;;;;;;5008916;28;20272;-88
2023/09/15 03:42:44;;;;;;;1.93;1.60;;;20.40;87.80;;;;;;4997258;28;20218;-88
2023/09/15 03:45:10;;;;;;;1.77;1.53;;;20.40;87.90;;;;;;4998386;28;20273;-88
2023/09/15 03:47:36;;;;;;;2.00;1.80;;;20.40;88.00;;;;;;5002058;28;20197;-88
2023/09/15 03:50:07;;;;;;;1.60;1.50;;;20.40;87.80;;;;;;4997135;28;20461;-88
2023/09/15 03:52:33;;;;;;;1.97;1.70;;;20.40;87.70;;;;;;5006902;28;20212;-88
2023/09/15 03:55:00;;;;;;;1.50;1.30;;;20.40;87.90;;;;;;5015380;28;20169;-88
2023/09/15 03:57:27;;;;;;;1.97;1.70;;;20.40;87.80;;;;;;4998649;28;20161;-88
2023/09/15 03:59:56;;;;;;;1.70;1.60;;;20.30;87.70;;;;;;4998257;28;20560;-88
2023/09/15 04:02:21;;;;;;;1.70;1.60;;;20.40;87.70;;;;;;4989507;28;20280;-88
2023/09/15 04:04:47;;;;;;;2.23;1.60;;;20.30;87.60;;;;;;4996608;28;20729;-88
2023/09/15 04:07:13;;;;;;;1.50;1.40;;;20.30;87.70;;;;;;5013334;28;20177;-88
2023/09/15 04:09:39;;;;;;;1.60;1.50;;;20.30;87.60;;;;;;5017529;28;20601;-88
2023/09/15 04:12:06;;;;;;;1.70;1.60;;;20.30;87.60;;;;;;5002759;28;20480;-88
2023/09/15 04:14:34;;;;;;;2.60;1.70;;;20.30;87.60;;;;;;5016536;28;20433;-88
2023/09/15 04:17:03;;;;;;;1.40;1.30;;;20.30;87.60;;;;;;5003728;28;20544;-88
2023/09/15 04:19:32;;;;;;;2.40;1.40;;;20.20;87.50;;;;;;5015207;28;20173;-88
2023/09/15 04:22:01;;;;;;;1.80;1.50;;;20.20;87.50;;;;;;5023470;28;20191;-88
2023/09/15 04:25:01;;;;;;;1.70;1.50;;;20.20;87.40;;;;;;4996600;28;20196;-88
2023/09/15 04:27:26;;;;;;;1.73;1.60;;;20.20;87.50;;;;;;5004270;28;20503;-88
2023/09/15 04:29:55;;;;;;;1.50;1.40;;;20.20;87.30;;;;;;5017510;28;20177;-88
2023/09/15 04:32:28;;;;;;;1.60;1.50;;;20.20;87.40;;;;;;5005805;28;20229;-88
2023/09/15 04:34:54;;;;;;;1.37;1.23;;;20.20;87.40;;;;;;5014668;28;20300;-88
2023/09/15 04:37:20;;;;;;;2.10;1.90;;;20.20;87.30;;;;;;5006902;28;20280;-88
2023/09/15 04:39:49;;;;;;;1.60;1.50;;;20.20;87.40;;;;;;5029329;28;20180;-88
2023/09/15 04:42:19;;;;;;;1.67;1.57;;;20.20;87.40;;;;;;5004065;28;20176;-88
2023/09/15 04:44:54;;;;;;;1.50;1.40;;;20.10;87.30;;;;;;4999966;28;20420;-88
2023/09/15 04:47:51;;;;;;;1.47;1.37;;;20.10;87.30;;;;;;5002218;28;20558;-88
2023/09/15 04:50:17;;;;;;;1.70;1.60;;;20.10;87.20;;;;;;4999528;28;20200;-88
2023/09/15 04:52:43;;;;;;;1.73;1.63;;;20.10;87.20;;;;;;5000506;28;20205;-88
2023/09/15 04:55:11;;;;;;;1.70;1.60;;;20.10;87.10;;;;;;5010991;28;20173;-88
2023/09/15 04:57:38;;;;;;;1.73;1.50;;;20.10;87.20;;;;;;5009379;28;20181;-88
2023/09/15 05:03:26;;;;;;;1.90;1.50;;;20.10;87.10;;;;;;5021981;28;20704;-87
2023/09/15 05:05:53;;;;;;;1.60;1.50;;;20.10;87.10;;;;;;5001418;28;20170;-87
2023/09/15 05:08:18;;;;;;;2.47;1.70;;;20.10;87.10;;;;;;5004767;28;20205;-87
2023/09/15 05:10:48;;;;;;;2.03;1.80;;;20.00;87.00;;;;;;5008753;28;20215;-88
2023/09/15 05:13:14;;;;;;;1.77;1.47;;;20.00;87.00;;;;;;5004330;28;20208;-87
2023/09/15 05:15:40;;;;;;;1.67;1.57;;;20.00;86.90;;;;;;5026799;28;20168;-87
2023/09/15 05:18:06;;;;;;;1.63;1.53;;;20.00;86.70;;;;;;5009368;28;20600;-87
2023/09/15 05:20:32;;;;;;;1.60;1.50;;;20.00;86.70;;;;;;5003480;28;20270;-87
2023/09/15 05:22:58;;;;;;;1.90;1.60;;;20.00;86.80;;;;;;5008884;28;20309;-88
2023/09/15 05:25:25;;;;;;;1.70;1.50;;;20.00;86.90;;;;;;5002973;28;20169;-87
2023/09/15 05:27:51;;;;;;;2.07;1.60;;;20.00;86.80;;;;;;5011449;28;20457;-87
2023/09/15 05:30:16;;;;;;;1.40;1.30;;;19.90;86.70;;;;;;5001187;28;20173;-87
2023/09/15 05:32:42;;;;;;;1.60;1.50;;;20.00;86.70;;;;;;5014063;28;20208;-87
2023/09/15 05:35:17;;;;;;;1.53;1.40;;;19.90;86.70;;;;;;5004230;28;20184;-87
2023/09/15 05:37:58;;;;;;;2.60;1.43;;;19.90;86.70;;;;;;5035493;28;20741;-87
2023/09/15 05:40:34;;;;;;;1.50;1.40;;;19.90;86.70;;;;;;5002729;28;20180;-87
2023/09/15 05:43:00;;;;;;;1.57;1.47;;;19.90;86.70;;;;;;5011311;28;20363;-87
2023/09/15 05:45:26;;;;;;;2.00;1.40;;;19.90;86.70;;;;;;4995578;28;20173;-87
2023/09/15 05:47:55;;;;;;;1.50;1.40;;;19.90;86.70;;;;;;5010564;28;20177;-87
2023/09/15 05:50:20;;;;;;;1.70;1.60;;;19.90;86.80;;;;;;4998619;28;20177;-87
2023/09/15 05:52:55;;;;;;;1.60;1.50;;;19.90;86.80;;;;;;5013318;28;20558;-87
2023/09/15 05:55:21;;;;;;;1.57;1.47;;;19.90;86.80;;;;;;4999788;28;20192;-87
2023/09/15 05:57:46;;;;;;;1.60;1.50;;;19.90;86.80;;;;;;5013496;28;20373;-87
2023/09/15 06:00:12;;;;;;;1.60;1.50;;;19.90;86.80;;;;;;5003095;28;20424;-87
2023/09/15 06:02:38;;;;;;;1.90;1.60;;;19.90;86.80;;;;;;5009805;28;20176;-88
2023/09/15 06:05:04;;;;;;;2.00;1.53;;;19.90;86.70;;;;;;5006388;28;20178;-88
2023/09/15 06:07:30;;;;;;;1.60;1.47;;;19.90;86.70;;;;;;5003842;28;20177;-88
2023/09/15 06:09:56;;;;;;;1.60;1.50;;;19.90;86.70;;;;;;5005342;28;20369;-87
2023/09/15 06:12:21;;;;;;;1.60;1.50;;;19.90;86.60;;;;;;5002661;28;20227;-88
2023/09/15 06:14:50;;;;;;;1.70;1.60;;;19.90;86.60;;;;;;5022937;28;20197;-87
2023/09/15 06:17:16;;;;;;;1.90;1.70;;;19.90;86.40;;;;;;5003885;28;20161;-88
2023/09/15 06:19:51;;;;;;;1.67;1.50;;;20.00;86.30;;;;;;5014739;28;20165;-88
2023/09/15 06:22:17;;;;;;;1.60;1.50;;;20.00;86.30;;;;;;5004094;28;20586;-88
2023/09/15 06:24:43;;;;;;;1.50;1.30;;;20.00;86.20;;;;;;5012100;28;20185;-89
2023/09/15 06:27:12;;;;;;;2.00;1.80;;;20.00;86.00;;;;;;5021555;28;20267;-89
2023/09/15 06:29:38;;;;;;;1.80;1.67;;;20.00;85.80;;;;;;4992840;28;20193;-89
2023/09/15 06:32:05;;;;;;;1.97;1.60;;;20.10;86.10;;;;;;5023714;28;20206;-89
2023/09/15 06:34:38;;;;;;;1.60;1.50;;;20.10;86.10;;;;;;4993294;28;20393;-89
2023/09/15 06:37:04;;;;;;;1.57;1.47;;;20.10;86.30;;;;;;4999617;28;20579;-89
2023/09/15 06:39:30;;;;;;;1.97;1.60;;;20.10;86.40;;;;;;5011644;28;20196;-89
2023/09/15 06:41:56;;;;;;;1.70;1.57;;;20.20;86.70;;;;;;5021772;28;20169;-89
2023/09/15 06:44:21;;;;;;;2.00;1.60;;;20.20;86.70;;;;;;4988237;28;20181;-89
2023/09/15 06:46:47;;;;;;;1.60;1.50;;;20.20;86.70;;;;;;4993508;28;20219;-89
2023/09/15 06:49:14;;;;;;;1.90;1.70;;;20.20;86.70;;;;;;5006092;28;20188;-89
2023/09/15 06:51:40;;;;;;;2.07;1.83;;;20.30;86.70;;;;;;5019138;28;20200;-89
2023/09/15 06:54:06;;;;;;;2.83;1.77;;;20.30;86.50;;;;;;4993169;28;20203;-89
2023/09/15 06:56:31;;;;;;;2.27;2.07;;;20.40;86.60;;;;;;4992834;28;20180;-89
2023/09/15 06:58:57;;;;;;;3.83;2.50;;;20.40;86.40;;;;;;4998634;28;20184;-89
2023/09/15 07:01:23;;;;;;;4.43;3.00;;;20.40;86.20;;;;;;5012541;28;20169;-89
2023/09/15 07:03:49;;;;;;;8.17;3.03;;;20.50;86.20;;;;;;5018878;28;20165;-89
2023/09/15 07:06:14;;;;;;;4.03;3.07;;;20.50;85.90;;;;;;5028934;28;20224;-89
2023/09/15 07:08:40;;;;;;;3.33;3.03;;;20.50;85.90;;;;;;5017267;28;20181;-89
2023/09/15 07:11:06;;;;;;;5.00;3.03;;;20.50;85.50;;;;;;5044939;28;20250;-89
2023/09/15 07:13:32;;;;;;;4.70;3.17;;;20.60;85.50;;;;;;4995271;28;20295;-89
2023/09/15 07:15:57;;;;;;;3.80;3.33;;;20.60;85.40;;;;;;4989677;28;20176;-89
2023/09/15 07:18:23;;;;;;;3.97;3.30;;;20.70;85.30;;;;;;4995342;28;20174;-89
2023/09/15 07:20:49;;;;;;;4.20;3.07;;;20.70;85.00;;;;;;5009559;28;20238;-90
2023/09/15 07:23:15;;;;;;;4.40;3.33;;;20.80;85.00;;;;;;4997044;28;20185;-90
2023/09/15 07:25:44;;;;;;;4.50;3.40;;;20.80;85.00;;;;;;5026410;28;20177;-90
2023/09/15 07:28:10;;;;;;;8.27;3.33;;;20.90;84.70;;;;;;5032382;28;20583;-90
2023/09/15 07:30:36;;;;;;;3.30;3.00;;;21.00;84.70;;;;;;5006445;28;20188;-90
2023/09/15 07:33:03;;;;;;;3.80;3.10;;;21.00;84.40;;;;;;5006751;28;20336;-90
2023/09/15 07:35:29;;;;;;;3.50;3.20;;;21.10;84.20;;;;;;5007606;28;20272;-90
2023/09/15 07:37:55;;;;;;;3.10;2.80;;;21.10;83.80;;;;;;5003878;28;20174;-90
2023/09/15 07:40:22;;;;;;;4.27;3.40;;;21.20;83.50;;;;;;4997941;28;20244;-90
2023/09/15 07:42:48;;;;;;;3.00;2.60;;;21.20;83.20;;;;;;5023716;28;20172;-90
2023/09/15 07:45:14;;;;;;;4.50;3.03;;;21.30;83.10;;;;;;4999464;28;20173;-90
2023/09/15 07:47:40;;;;;;;4.10;3.50;;;21.40;82.70;;;;;;5040625;28;20541;-90
2023/09/15 07:50:06;;;;;;;4.80;3.47;;;21.40;82.40;;;;;;5007438;28;20177;-90
2023/09/15 07:52:32;;;;;;;4.30;3.30;;;21.50;82.30;;;;;;5008193;28;20541;-91
2023/09/15 07:54:58;;;;;;;5.00;3.10;;;21.50;82.00;;;;;;4997102;28;20169;-91
2023/09/15 07:57:24;;;;;;;5.03;3.40;;;21.60;81.90;;;;;;4999905;28;20185;-90
2023/09/15 07:59:50;;;;;;;4.53;3.20;;;21.60;81.80;;;;;;4991125;28;20462;-91
2023/09/15 08:02:15;;;;;;;5.03;3.53;;;21.70;81.80;;;;;;5025040;28;20239;-90
2023/09/15 08:04:41;;;;;;;4.13;3.20;;;21.70;81.60;;;;;;4993542;28;20162;-91
2023/09/15 08:07:07;;;;;;;4.50;3.40;;;21.70;81.30;;;;;;4984474;28;20201;-91
2023/09/15 08:09:33;;;;;;;4.53;3.27;;;21.80;81.70;;;;;;4992835;28;20169;-91
2023/09/15 08:12:03;;;;;;;5.57;3.63;;;21.80;81.20;;;;;;4992951;28;20224;-90
2023/09/15 08:14:29;;;;;;;8.13;3.63;;;21.80;83.00;;;;;;4994420;28;20174;-91
2023/09/15 08:16:55;;;;;;;7.60;3.72;;;21.90;84.00;;;;;;5004009;28;20181;-91
2023/09/15 08:19:21;;;;;;;6.47;3.80;;;22.00;84.50;;;;;;5003236;28;20185;-90
2023/09/15 08:21:47;;;;;;;4.43;3.40;;;22.00;84.10;;;;;;5003576;28;20180;-90
2023/09/15 08:24:13;;;;;;;6.65;3.72;;;22.10;84.00;;;;;;5005929;28;20187;-90
2023/09/15 08:26:39;;;;;;;4.93;3.40;;;22.20;83.20;;;;;;4989833;28;20579;-91
2023/09/15 08:29:05;;;;;;;5.43;3.50;;;22.30;82.50;;;;;;4990075;28;20185;-90
2023/09/15 08:31:31;;;;;;;6.65;3.53;;;22.30;81.60;;;;;;4999996;28;20240;-91
2023/09/15 08:33:57;;;;;;;4.72;3.30;;;22.40;81.80;;;;;;4991580;28;20174;-91
2023/09/15 08:36:26;;;;;;;4.50;3.28;;;22.50;80.60;;;;;;4951194;28;1412511;-90
2023/09/15 08:38:52;;;;;;;3.97;3.45;;;22.70;78.90;;;;;;4990645;28;20173;-90
2023/09/15 08:41:24;;;;;;;3.63;3.28;;;23.10;77.00;;;;;;5015234;28;20222;-91
2023/09/15 08:43:52;;;;;;;5.82;3.55;;;23.40;74.90;;;;;;5010230;28;20293;-90
2023/09/15 08:46:18;;;;;;;6.88;3.10;;;23.60;73.10;;;;;;4995505;28;20184;-91
2023/09/15 08:48:49;;;;;;;5.35;3.10;;;23.70;73.10;;;;;;4986017;28;20240;-90
2023/09/15 08:51:17;;;;;;;4.55;3.33;;;23.80;71.70;;;;;;4992216;28;20368;-91
2023/09/15 08:53:43;;;;;;;5.32;3.22;;;23.90;71.70;;;;;;4984993;28;20197;-91
2023/09/15 08:56:09;;;;;;;8.05;3.30;;;23.90;71.50;;;;;;4998434;28;20169;-91
2023/09/15 08:58:36;;;;;;;5.20;3.38;;;23.90;71.50;;;;;;5006582;28;20208;-91
2023/09/15 09:01:07;;;;;;;4.50;3.55;;;23.90;72.10;;;;;;4993815;28;20204;-91
2023/09/15 09:03:36;;;;;;;4.43;3.25;;;23.90;71.70;;;;;;5021212;28;20553;-91
2023/09/15 09:06:03;;;;;;;5.32;3.50;;;23.90;71.90;;;;;;4996301;28;20165;-91
2023/09/15 09:08:29;;;;;;;5.03;3.30;;;23.90;71.20;;;;;;4993741;28;20174;-91
2023/09/15 09:10:57;;;;;;;4.40;3.38;;;23.90;71.60;;;;;;4993179;28;21367;-91
2023/09/15 09:13:23;;;;;;;3.83;3.20;;;23.80;71.30;;;;;;4998116;28;20488;-90
2023/09/15 09:15:54;;;;;;;4.10;2.75;;;23.80;71.00;;;;;;4994876;28;20291;-90
2023/09/15 09:18:32;;;;;;;5.35;3.08;;;23.80;71.10;;;;;;5017121;28;20177;-90
2023/09/15 09:20:58;;;;;;;4.38;3.20;;;23.90;71.40;;;;;;5006060;28;20315;-90
2023/09/15 09:23:24;;;;;;;4.13;3.00;;;23.80;71.00;;;;;;4999908;28;20479;-91
2023/09/15 09:25:56;;;;;;;4.18;2.92;;;23.80;71.20;;;;;;4991147;28;20225;-90
2023/09/15 09:28:29;;;;;;;3.72;2.75;;;23.80;71.10;;;;;;5000235;28;20430;-91
2023/09/15 09:30:58;;;;;;;4.00;2.88;;;23.80;71.00;;;;;;4986531;28;20177;-91
2023/09/15 09:33:24;;;;;;;3.58;2.70;;;23.90;71.00;;;;;;4995685;28;20515;-90
2023/09/15 09:35:49;;;;;;;4.25;2.97;;;23.80;71.30;;;;;;4985554;28;20182;-91
2023/09/15 09:38:15;;;;;;;4.13;3.00;;;23.80;71.40;;;;;;4991818;28;20412;-90
2023/09/15 09:40:41;;;;;;;2.97;2.60;;;23.80;71.50;;;;;;5020178;28;20222;-91
2023/09/15 09:43:07;;;;;;;4.20;2.88;;;23.70;71.60;;;;;;5017517;28;20184;-91
2023/09/15 09:45:33;;;;;;;3.97;3.03;;;23.70;71.60;;;;;;4984783;28;20253;-90
2023/09/15 09:48:00;;;;;;;3.63;2.97;;;23.70;71.60;;;;;;4994333;28;20202;-90
2023/09/15 09:50:26;;;;;;;3.88;2.65;;;23.70;71.70;;;;;;5012831;28;20185;-91
2023/09/15 09:52:55;;;;;;;4.93;2.78;;;23.70;72.00;;;;;;5000389;28;20208;-91
2023/09/15 09:55:24;;;;;;;3.83;2.90;;;23.60;71.90;;;;;;5005989;28;20165;-91
2023/09/15 09:57:51;;;;;;;4.80;2.95;;;23.60;72.20;;;;;;4996335;28;20416;-90
2023/09/15 10:00:22;;;;;;;3.10;2.70;;;23.60;72.40;;;;;;5025866;28;20273;-91
2023/09/15 10:02:48;;;;;;;2.95;2.60;;;23.60;72.10;;;;;;4998599;28;20552;-91
2023/09/15 10:05:14;;;;;;;5.60;2.78;;;23.60;72.20;;;;;;4999873;28;20178;-90
2023/09/15 10:07:40;;;;;;;2.72;2.42;;;23.60;72.30;;;;;;4996234;28;20205;-90
2023/09/15 10:10:07;;;;;;;3.00;2.55;;;23.60;72.50;;;;;;5002075;28;20543;-90
2023/09/15 10:12:36;;;;;;;3.00;2.30;;;23.50;72.60;;;;;;4994455;28;20209;-90
2023/09/15 10:15:06;;;;;;;3.63;2.70;;;23.60;72.80;;;;;;5000055;28;20801;-91
2023/09/15 10:17:33;;;;;;;3.83;2.65;;;23.60;72.70;;;;;;5008392;28;20220;-90
2023/09/15 10:20:00;;;;;;;2.60;2.35;;;23.60;72.60;;;;;;5000333;28;20162;-90
2023/09/15 10:22:26;;;;;;;3.95;2.50;;;23.60;72.80;;;;;;4988056;28;20478;-90
2023/09/15 10:25:00;;;;;;;3.42;2.60;;;23.50;73.10;;;;;;5004302;28;20179;-90
2023/09/15 10:27:29;;;;;;;3.30;2.55;;;23.50;73.40;;;;;;4990037;28;20181;-90
2023/09/15 10:30:07;;;;;;;3.15;2.50;;;23.50;74.00;;;;;;4996996;28;20490;-90
2023/09/15 10:32:39;;;;;;;3.58;2.35;;;23.40;74.50;;;;;;5007196;28;20372;-91
2023/09/15 10:35:07;;;;;;;3.00;2.50;;;23.30;74.80;;;;;;4996144;28;20191;-90
2023/09/15 10:37:36;;;;;;;3.00;2.65;;;23.20;75.10;;;;;;5008038;28;20243;-91
2023/09/15 10:40:02;;;;;;;3.53;2.33;;;23.20;75.70;;;;;;4994846;28;20185;-90
2023/09/15 10:42:28;;;;;;;3.53;2.58;;;23.10;76.00;;;;;;4996207;28;20394;-90
2023/09/15 10:44:54;;;;;;;3.05;2.65;;;23.10;76.30;;;;;;5003764;28;20184;-90
2023/09/15 10:47:21;;;;;;;3.15;2.38;;;23.10;76.70;;;;;;5014900;28;20650;-90
2023/09/15 10:49:54;;;;;;;4.05;2.67;;;23.10;77.00;;;;;;5043769;28;20182;-91
2023/09/15 10:52:37;;;;;;;2.45;2.17;;;23.00;77.10;;;;;;4996305;28;20189;-90
2023/09/15 10:55:04;;;;;;;2.72;2.42;;;23.00;77.30;;;;;;4996683;28;20775;-91
2023/09/15 10:57:34;;;;;;;2.70;2.22;;;23.00;78.00;;;;;;4994051;28;20422;-90
2023/09/15 11:00:02;;;;;;;3.65;2.58;;;23.00;77.70;;;;;;4994959;28;20196;-90
2023/09/15 11:02:31;;;;;;;2.83;2.28;;;23.00;77.70;;;;;;4991676;28;20173;-90
2023/09/15 11:04:58;;;;;;;3.05;2.30;;;23.00;77.50;;;;;;4989695;28;20393;-90
2023/09/15 11:07:25;;;;;;;2.85;2.17;;;23.00;77.80;;;;;;5001038;28;20189;-90
2023/09/15 11:09:55;;;;;;;2.95;2.50;;;23.00;77.60;;;;;;5004966;28;20225;-90
2023/09/15 11:12:22;;;;;;;3.67;2.07;;;23.00;77.60;;;;;;4996249;28;20201;-90
2023/09/15 11:14:48;;;;;;;4.27;2.17;;;23.10;77.80;;;;;;4989531;28;20189;-89
2023/09/15 11:17:17;;;;;;;2.23;2.03;;;23.10;77.80;;;;;;5011509;28;20175;-90
2023/09/15 11:19:43;;;;;;;3.37;2.17;;;23.10;78.00;;;;;;5011460;28;20166;-90
2023/09/15 11:22:11;;;;;;;2.47;2.10;;;23.10;78.10;;;;;;5000683;28;20167;-90
2023/09/15 11:24:37;;;;;;;2.80;2.40;;;23.10;78.30;;;;;;5007213;28;20408;-90
2023/09/15 11:27:03;;;;;;;4.20;2.60;;;23.10;78.20;;;;;;4998794;28;20174;-90
2023/09/15 11:29:30;;;;;;;2.47;2.00;;;23.10;78.70;;;;;;4989124;28;20170;-90
2023/09/15 11:31:58;;;;;;;2.30;2.10;;;23.10;78.70;;;;;;4993357;28;20356;-90
2023/09/15 11:34:24;;;;;;;2.77;2.17;;;23.10;78.70;;;;;;5002640;28;20400;-90
2023/09/15 11:36:51;;;;;;;3.03;2.03;;;23.00;78.90;;;;;;4992904;28;20437;-91
2023/09/15 11:39:17;;;;;;;5.13;2.07;;;23.10;78.80;;;;;;5013445;28;20165;-91
2023/09/15 11:41:53;;;;;;;3.83;2.23;;;23.10;79.00;;;;;;5004455;28;20216;-91
2023/09/15 11:44:25;;;;;;;2.63;2.10;;;23.00;79.00;;;;;;4998415;28;20181;-90
2023/09/15 11:46:52;;;;;;;2.97;2.10;;;23.00;79.20;;;;;;4998911;28;20173;-91
2023/09/15 11:49:19;;;;;;;2.77;2.03;;;23.00;79.20;;;;;;4992125;28;20243;-91
2023/09/15 11:51:46;;;;;;;3.00;1.80;;;23.00;79.30;;;;;;4996571;28;20197;-91
2023/09/15 11:54:12;;;;;;;2.70;2.17;;;23.00;79.50;;;;;;4991463;28;20173;-90
2023/09/15 11:56:38;;;;;;;4.30;2.10;;;23.00;79.70;;;;;;4993048;28;20517;-90
2023/09/15 11:59:06;;;;;;;2.83;2.10;;;23.00;79.90;;;;;;4999367;28;20203;-91
2023/09/15 12:01:32;;;;;;;3.80;2.30;;;23.00;80.00;;;;;;5006005;28;20244;-90
2023/09/15 12:03:58;;;;;;;3.97;2.20;;;23.00;80.10;;;;;;4997945;28;20360;-90
2023/09/15 12:06:25;;;;;;;3.80;2.27;;;23.00;80.20;;;;;;5003333;28;20166;-91
2023/09/15 12:08:52;;;;;;;2.90;2.10;;;23.00;80.60;;;;;;5000933;28;20269;-90
2023/09/15 12:11:19;;;;;;;2.83;2.20;;;23.00;80.50;;;;;;4988598;28;20310;-90
2023/09/15 12:13:52;;;;;;;3.57;2.07;;;23.00;80.60;;;;;;5016850;28;20176;-90
2023/09/15 12:16:27;;;;;;;3.23;2.00;;;23.00;80.70;;;;;;4988530;28;20170;-90
2023/09/15 12:18:54;;;;;;;3.23;1.90;;;23.00;80.90;;;;;;4993552;28;20276;-91
2023/09/15 12:21:28;;;;;;;2.87;2.37;;;23.00;81.00;;;;;;5003085;28;20544;-91
2023/09/15 12:23:55;;;;;;;3.50;2.10;;;23.00;81.10;;;;;;4992120;28;20173;-90
2023/09/15 12:26:21;;;;;;;3.00;2.10;;;23.00;81.30;;;;;;5005730;28;20343;-91
2023/09/15 12:28:48;;;;;;;2.27;2.03;;;23.00;81.50;;;;;;4997599;28;20464;-91
2023/09/15 12:31:18;;;;;;;2.57;2.20;;;23.00;81.40;;;;;;4985808;28;20331;-90
2023/09/15 12:33:56;;;;;;;2.10;1.90;;;23.00;81.40;;;;;;5008200;28;20166;-90
2023/09/15 12:36:22;;;;;;;3.20;1.90;;;23.00;81.70;;;;;;5009240;28;20589;-91
2023/09/15 12:38:50;;;;;;;2.67;2.10;;;23.00;81.70;;;;;;4995819;28;20287;-90
2023/09/15 12:41:16;;;;;;;3.67;2.20;;;23.00;81.70;;;;;;4986495;28;20182;-92
2023/09/15 12:43:43;;;;;;;3.93;1.67;;;23.00;81.80;;;;;;5004039;28;20235;-90
2023/09/15 12:46:09;;;;;;;3.37;2.00;;;23.00;82.00;;;;;;5012201;28;20173;-91
2023/09/15 12:48:34;;;;;;;2.00;1.80;;;23.00;81.90;;;;;;5018437;28;20268;-91
2023/09/15 12:51:00;;;;;;;2.57;1.83;;;23.00;82.10;;;;;;5018774;28;20179;-90
2023/09/15 12:53:26;;;;;;;2.23;1.97;;;23.00;82.10;;;;;;5034617;28;20648;-90
2023/09/15 12:55:54;;;;;;;2.17;1.80;;;23.00;82.20;;;;;;4973812;28;20198;-90